createdAt,value
2023-04-12T00:01:28.378Z,8.40
2023-04-12T00:04:04.122Z,8.43
2023-04-12T00:06:33.313Z,8.44
2023-04-12T00:09:04.394Z,8.44
2023-04-12T00:11:33.362Z,8.43
2023-04-12T00:14:02.241Z,8.41
2023-04-12T00:16:32.064Z,8.37
2023-04-12T00:19:03.229Z,8.35
2023-04-12T00:21:32.189Z,8.32
2023-04-12T00:24:02.873Z,8.28
2023-04-12T00:26:31.917Z,8.25
2023-04-12T00:29:01.023Z,8.22
2023-04-12T00:31:30.395Z,8.16
2023-04-12T00:33:59.399Z,8.12
2023-04-12T00:36:29.224Z,8.09
2023-04-12T00:38:58.369Z,8.09
2023-04-12T00:41:28.148Z,8.02
2023-04-12T00:43:58.686Z,8.00
2023-04-12T00:46:29.083Z,7.98
2023-04-12T00:48:59.055Z,7.94
2023-04-12T00:51:32.744Z,7.90
2023-04-12T00:54:04.183Z,7.88
2023-04-12T00:56:34.119Z,7.87
2023-04-12T00:59:03.346Z,7.85
2023-04-12T01:01:32.532Z,7.81
2023-04-12T01:04:04.107Z,7.80
2023-04-12T01:06:49.764Z,7.73
2023-04-12T01:09:43.276Z,7.73
2023-04-12T01:12:29.163Z,7.71
2023-04-12T01:15:07.429Z,7.73
2023-04-12T01:17:57.578Z,7.73
2023-04-12T01:20:31.636Z,7.73
2023-04-12T01:23:35.906Z,7.73
2023-04-12T01:26:25.019Z,7.74
2023-04-12T01:28:57.057Z,7.74
2023-04-12T01:31:29.532Z,7.74
2023-04-12T01:33:59.577Z,7.76
2023-04-12T01:36:31.115Z,7.77
2023-04-12T01:39:04.167Z,7.76
2023-04-12T01:41:33.568Z,7.78
2023-04-12T01:44:02.490Z,7.78
2023-04-12T01:46:32.113Z,7.77
2023-04-12T01:49:01.752Z,7.78
2023-04-12T01:51:47.990Z,7.77
2023-04-12T01:54:22.625Z,7.80
2023-04-12T01:56:57.913Z,7.78
2023-04-12T01:59:32.068Z,7.80
2023-04-12T02:02:03.240Z,7.78
2023-04-12T02:04:35.271Z,7.83
2023-04-12T02:07:04.526Z,7.80
2023-04-12T02:09:38.494Z,7.81
2023-04-12T02:12:09.222Z,7.80
2023-04-12T02:14:38.827Z,7.81
2023-04-12T02:17:08.167Z,7.81
2023-04-12T02:19:37.380Z,7.83
2023-04-12T02:22:07.891Z,7.83
2023-04-12T02:24:39.572Z,7.77
2023-04-12T02:27:08.343Z,7.81
2023-04-12T02:29:40.820Z,7.81
2023-04-12T02:32:10.492Z,7.81
2023-04-12T02:34:41.655Z,7.78
2023-04-12T02:37:21.400Z,7.77
2023-04-12T02:39:50.297Z,7.81
2023-04-12T02:42:19.586Z,7.80
2023-04-12T02:44:51.347Z,7.81
2023-04-12T02:47:21.218Z,7.81
2023-04-12T02:49:51.398Z,7.81
2023-04-12T02:52:22.356Z,7.78
2023-04-12T02:55:08.299Z,7.80
2023-04-12T02:57:38.098Z,7.80
2023-04-12T03:00:11.751Z,7.77
2023-04-12T03:02:44.988Z,7.81
2023-04-12T03:05:20.197Z,7.81
2023-04-12T03:07:49.979Z,7.80
2023-04-12T03:10:21.891Z,7.83
2023-04-12T03:12:58.836Z,7.83
2023-04-12T03:15:35.455Z,7.83
2023-04-12T03:18:04.547Z,7.81
2023-04-12T03:20:41.129Z,7.83
2023-04-12T03:23:11.527Z,7.84
2023-04-12T03:25:45.387Z,7.84
2023-04-12T03:28:30.157Z,7.83
2023-04-12T03:31:00.528Z,7.85
2023-04-12T03:33:38.034Z,7.87
2023-04-12T03:36:10.501Z,7.87
2023-04-12T03:38:41.307Z,7.88
2023-04-12T03:41:11.955Z,7.87
2023-04-12T03:43:42.507Z,7.90
2023-04-12T03:46:19.080Z,7.85
2023-04-12T03:48:53.150Z,7.90
2023-04-12T03:51:26.360Z,7.91
2023-04-12T03:53:57.307Z,7.90
2023-04-12T03:56:27.364Z,7.91
2023-04-12T03:58:56.883Z,7.94
2023-04-12T04:01:27.751Z,7.91
2023-04-12T04:03:57.384Z,7.94
2023-04-12T04:06:29.526Z,7.95
2023-04-12T04:09:00.032Z,7.94
2023-04-12T04:11:30.726Z,7.98
2023-04-12T04:14:07.883Z,7.97
2023-04-12T04:16:37.460Z,7.97
2023-04-12T04:19:07.350Z,7.98
2023-04-12T04:21:36.370Z,8.00
2023-04-12T04:24:10.900Z,8.00
2023-04-12T04:26:45.539Z,8.04
2023-04-12T04:29:29.483Z,8.04
2023-04-12T04:31:59.325Z,8.02
2023-04-12T04:34:28.904Z,8.06
2023-04-12T04:37:05.007Z,8.08
2023-04-12T04:39:34.146Z,8.12
2023-04-12T04:42:06.181Z,8.12
2023-04-12T04:44:39.927Z,8.12
2023-04-12T04:47:11.330Z,8.13
2023-04-12T04:49:40.952Z,8.16
2023-04-12T04:52:22.082Z,8.16
2023-04-12T04:54:57.276Z,8.18
2023-04-12T04:57:27.324Z,8.18
2023-04-12T04:59:58.778Z,8.19
2023-04-12T05:02:28.970Z,8.25
2023-04-12T05:04:59.512Z,8.23
2023-04-12T05:07:28.523Z,8.26
2023-04-12T05:09:57.505Z,8.28
2023-04-12T05:12:26.471Z,8.29
2023-04-12T05:15:10.596Z,8.30
2023-04-12T05:17:41.188Z,8.35
2023-04-12T05:20:12.116Z,8.36
2023-04-12T05:22:41.172Z,8.36
2023-04-12T05:25:10.935Z,8.40
2023-04-12T05:27:50.423Z,8.41
2023-04-12T05:30:22.220Z,8.41
2023-04-12T05:32:51.348Z,8.49
2023-04-12T05:35:20.720Z,8.50
2023-04-12T05:37:50.659Z,8.53
2023-04-12T05:40:19.802Z,8.57
2023-04-12T05:42:50.093Z,8.60
2023-04-12T05:45:19.430Z,8.65
2023-04-12T05:47:48.906Z,8.69
2023-04-12T05:50:20.118Z,8.74
2023-04-12T05:52:50.741Z,8.79
2023-04-12T05:55:21.742Z,8.84
2023-04-12T05:57:51.817Z,8.88
2023-04-12T06:00:23.013Z,8.92
2023-04-12T06:02:52.507Z,8.95
2023-04-12T06:05:22.300Z,8.96
2023-04-12T06:07:51.173Z,8.98
2023-04-12T06:10:20.731Z,9.04
2023-04-12T06:12:53.167Z,9.06
2023-04-12T06:15:22.521Z,9.12
2023-04-12T06:17:58.170Z,9.18
2023-04-12T06:20:27.004Z,9.23
2023-04-12T06:22:56.326Z,9.27
2023-04-12T06:25:25.485Z,9.29
2023-04-12T06:27:55.533Z,9.34
2023-04-12T06:30:26.663Z,9.37
2023-04-12T06:32:56.665Z,9.39
2023-04-12T06:35:25.876Z,9.40
2023-04-12T06:37:54.816Z,9.43
2023-04-12T06:40:23.844Z,9.43
2023-04-12T06:42:53.008Z,9.44
2023-04-12T06:45:25.324Z,9.44
2023-04-12T06:47:56.364Z,9.47
2023-04-12T06:50:26.249Z,9.46
2023-04-12T06:52:55.257Z,9.41
2023-04-12T06:55:24.077Z,9.43
2023-04-12T06:57:53.316Z,9.43
2023-04-12T07:00:24.323Z,9.44
2023-04-12T07:02:53.340Z,9.49
2023-04-12T07:05:22.920Z,9.53
2023-04-12T07:07:51.787Z,9.54
2023-04-12T07:10:20.791Z,9.57
2023-04-12T07:12:49.667Z,9.53
2023-04-12T07:15:19.116Z,9.54
2023-04-12T07:17:47.977Z,9.51
2023-04-12T07:20:19.350Z,9.47
2023-04-12T07:22:51.337Z,9.47
2023-04-12T07:25:20.471Z,9.47
2023-04-12T07:27:51.610Z,9.46
2023-04-12T07:30:21.288Z,9.53
2023-04-12T07:32:50.610Z,9.53
2023-04-12T07:35:20.148Z,9.51
2023-04-12T07:37:48.995Z,9.54
2023-04-12T07:40:19.143Z,9.55
2023-04-12T07:42:48.003Z,9.58
2023-04-12T07:45:19.164Z,9.58
2023-04-12T07:47:48.058Z,9.64
2023-04-12T07:50:18.166Z,9.68
2023-04-12T07:52:49.990Z,9.72
2023-04-12T07:55:19.529Z,9.74
2023-04-12T07:57:48.327Z,9.80
2023-04-12T08:00:22.104Z,9.78
2023-04-12T08:02:51.524Z,9.78
2023-04-12T08:05:20.780Z,9.80
2023-04-12T08:07:50.061Z,9.80
2023-04-12T08:10:19.216Z,9.80
2023-04-12T08:12:48.602Z,9.78
2023-04-12T08:15:18.957Z,9.81
2023-04-12T08:17:47.819Z,9.85
2023-04-12T08:20:19.858Z,9.88
2023-04-12T08:22:49.753Z,9.92
2023-04-12T08:25:20.502Z,9.95
2023-04-12T08:27:50.791Z,9.94
2023-04-12T08:30:26.061Z,9.96
2023-04-12T08:32:55.533Z,9.95
2023-04-12T08:35:25.126Z,9.92
2023-04-12T08:37:54.368Z,9.94
2023-04-12T08:40:23.634Z,9.98
2023-04-12T08:42:53.806Z,10.02
2023-04-12T08:45:25.844Z,10.08
2023-04-12T08:47:54.882Z,10.10
2023-04-12T08:50:24.846Z,10.13
2023-04-12T08:52:55.874Z,10.19
2023-04-12T08:55:26.021Z,10.30
2023-04-12T08:57:55.868Z,10.43
2023-04-12T09:00:25.825Z,10.64
2023-04-12T09:02:55.036Z,10.82
2023-04-12T09:05:29.704Z,11.03
2023-04-12T09:07:59.588Z,11.22
2023-04-12T09:10:33.468Z,11.36
2023-04-12T09:13:03.342Z,11.53
2023-04-12T09:15:33.149Z,11.71
2023-04-12T09:18:07.670Z,11.95
2023-04-12T09:20:37.716Z,12.16
2023-04-12T09:23:24.372Z,12.31
2023-04-12T09:25:53.773Z,12.44
2023-04-12T09:28:25.551Z,12.51
2023-04-12T09:30:55.774Z,12.54
2023-04-12T09:33:34.999Z,12.44
2023-04-12T09:36:05.859Z,12.39
2023-04-12T09:38:36.713Z,12.44
2023-04-12T09:41:26.100Z,12.58
2023-04-12T09:43:56.630Z,12.71
2023-04-12T09:46:26.268Z,12.75
2023-04-12T09:48:58.430Z,12.79
2023-04-12T09:51:29.468Z,12.85
2023-04-12T09:54:00.425Z,12.91
2023-04-12T09:56:31.765Z,12.96
2023-04-12T09:59:03.558Z,12.99
2023-04-12T10:01:36.620Z,13.03
2023-04-12T10:04:07.279Z,13.09
2023-04-12T10:06:37.143Z,13.09
2023-04-12T10:09:08.129Z,13.00
2023-04-12T10:11:41.175Z,13.03
2023-04-12T10:14:11.798Z,13.13
2023-04-12T10:16:42.648Z,13.22
2023-04-12T10:19:14.316Z,13.33
2023-04-12T10:21:43.439Z,13.57
2023-04-12T10:24:13.042Z,13.78
2023-04-12T10:26:43.787Z,14.02
2023-04-12T10:29:29.414Z,14.40
2023-04-12T10:31:58.037Z,14.59
2023-04-12T10:34:30.858Z,14.62
2023-04-12T10:37:01.508Z,14.61
2023-04-12T10:39:41.764Z,14.61
2023-04-12T10:42:27.662Z,14.59
2023-04-12T10:45:39.969Z,14.55
2023-04-12T10:48:29.032Z,14.48
2023-04-12T10:54:36.419Z,14.51
2023-04-12T10:57:30.065Z,14.61
2023-04-12T11:00:02.935Z,14.52
2023-04-12T11:02:37.177Z,14.44
2023-04-12T11:05:14.752Z,14.38
2023-04-12T11:08:09.966Z,14.48
2023-04-12T11:10:49.316Z,14.64
2023-04-12T11:13:29.178Z,14.85
2023-04-12T11:16:05.438Z,15.10
2023-04-12T11:18:38.625Z,15.25
2023-04-12T11:21:11.468Z,15.24
2023-04-12T11:23:45.939Z,15.09
2023-04-12T11:26:24.690Z,15.00
2023-04-12T11:28:59.421Z,14.93
2023-04-12T11:31:32.715Z,14.87
2023-04-12T11:34:04.977Z,14.82
2023-04-12T11:36:38.319Z,14.74
2023-04-12T11:39:11.435Z,14.68
2023-04-12T11:41:49.326Z,14.59
2023-04-12T11:44:23.109Z,14.57
2023-04-12T11:46:56.746Z,14.57
2023-04-12T11:49:29.351Z,14.69
2023-04-12T11:52:08.820Z,14.75
2023-04-12T11:54:42.752Z,14.76
2023-04-12T11:57:21.082Z,14.75
2023-04-12T11:59:53.894Z,14.75
2023-04-12T12:02:32.341Z,14.83
2023-04-12T12:05:11.704Z,14.99
2023-04-12T12:07:45.201Z,15.10
2023-04-12T12:10:36.587Z,15.29
2023-04-12T12:13:19.351Z,15.51
2023-04-12T12:16:01.478Z,15.52
2023-04-12T12:18:33.936Z,15.51
2023-04-12T12:21:09.453Z,15.50
2023-04-12T12:23:43.745Z,15.50
2023-04-12T12:26:25.519Z,15.59
2023-04-12T12:29:00.639Z,15.59
2023-04-12T12:31:33.811Z,15.58
2023-04-12T12:34:09.064Z,15.48
2023-04-12T12:36:42.129Z,15.44
2023-04-12T12:39:15.925Z,15.55
2023-04-12T12:41:56.886Z,15.68
2023-04-12T12:44:29.370Z,15.75
2023-04-12T12:47:14.144Z,15.87
2023-04-12T12:49:48.064Z,16.03
2023-04-12T12:52:20.613Z,16.10
2023-04-12T12:54:53.651Z,16.09
2023-04-12T12:57:26.488Z,16.07
2023-04-12T12:59:59.014Z,16.10
2023-04-12T13:02:32.329Z,16.06
2023-04-12T13:05:06.094Z,15.92
2023-04-12T13:07:39.936Z,15.82
2023-04-12T13:10:13.581Z,15.76
2023-04-12T13:12:46.317Z,15.76
2023-04-12T13:15:23.699Z,15.73
2023-04-12T13:17:57.277Z,15.70
2023-04-12T13:20:30.032Z,15.72
2023-04-12T13:23:02.437Z,15.73
2023-04-12T13:25:35.381Z,15.76
2023-04-12T13:28:08.273Z,15.68
2023-04-12T13:30:42.741Z,15.65
2023-04-12T13:33:20.082Z,15.62
2023-04-12T13:35:54.105Z,15.64
2023-04-12T13:38:27.148Z,15.68
2023-04-12T13:40:59.734Z,15.75
2023-04-12T13:43:32.062Z,15.76
2023-04-12T13:46:04.900Z,15.80
2023-04-12T13:48:37.599Z,15.79
2023-04-12T13:51:10.949Z,15.78
2023-04-12T13:53:43.178Z,15.80
2023-04-12T13:56:16.336Z,15.76
2023-04-12T13:58:49.456Z,15.68
2023-04-12T14:50:47.314Z,14.64
2023-04-12T14:53:21.225Z,14.61
2023-04-12T14:55:53.529Z,14.58
2023-04-12T14:58:29.777Z,14.55
2023-04-12T15:01:02.696Z,14.48
2023-04-12T15:03:36.295Z,14.35
2023-04-12T15:06:11.485Z,14.30
2023-04-12T15:08:43.666Z,14.27
2023-04-12T15:11:22.464Z,14.23
2023-04-12T15:13:55.444Z,14.21
2023-04-12T15:16:29.159Z,14.21
2023-04-12T15:19:06.865Z,14.23
2023-04-12T15:21:47.622Z,14.25
2023-04-12T15:24:21.133Z,14.24
2023-04-12T15:26:54.141Z,14.24
2023-04-12T15:29:28.083Z,14.25
2023-04-12T15:32:00.824Z,14.27
2023-04-12T15:34:34.682Z,14.31
2023-04-12T15:37:07.305Z,14.38
2023-04-12T15:39:40.089Z,14.37
2023-04-12T15:42:12.559Z,14.34
2023-04-12T15:44:45.733Z,14.28
2023-04-12T15:47:18.894Z,14.23
2023-04-12T15:49:54.596Z,14.10
2023-04-12T15:52:27.168Z,14.06
2023-04-12T15:54:59.892Z,14.00
2023-04-12T15:57:33.441Z,13.95
2023-04-12T16:00:21.301Z,13.90
2023-04-12T16:02:56.648Z,13.82
2023-04-12T16:05:31.183Z,13.76
2023-04-12T16:08:03.986Z,13.68
2023-04-12T16:10:38.412Z,13.64
2023-04-12T16:13:11.340Z,13.59
2023-04-12T16:15:44.344Z,13.54
2023-04-12T16:18:18.185Z,13.50
2023-04-12T16:20:52.369Z,13.41
2023-04-12T16:23:25.632Z,13.37
2023-04-12T16:26:00.145Z,13.30
2023-04-12T16:28:33.061Z,13.26
2023-04-12T16:31:05.771Z,13.20
2023-04-12T16:33:38.701Z,13.13
2023-04-12T16:36:11.346Z,13.07
2023-04-12T16:38:44.243Z,13.02
2023-04-12T16:41:18.403Z,12.96
2023-04-12T16:43:54.311Z,12.92
2023-04-12T16:46:26.654Z,12.86
2023-04-12T16:49:00.868Z,12.82
2023-04-12T16:51:37.410Z,12.76
2023-04-12T16:54:10.657Z,12.72
2023-04-12T16:56:43.065Z,12.64
2023-04-12T16:59:15.636Z,12.57
2023-04-12T17:01:49.485Z,12.51
2023-04-12T17:04:24.468Z,12.43
2023-04-12T17:06:57.570Z,12.33
2023-04-12T17:09:29.754Z,12.24
2023-04-12T17:12:04.855Z,12.16
2023-04-12T17:14:38.405Z,12.07
2023-04-12T17:17:10.728Z,11.99
2023-04-12T17:19:46.284Z,11.86
2023-04-12T17:22:19.528Z,11.79
2023-04-12T17:24:53.867Z,11.68
2023-04-12T17:27:26.361Z,11.55
2023-04-12T17:30:00.207Z,11.49
2023-04-12T17:32:34.082Z,11.36
2023-04-12T17:35:08.164Z,11.24
2023-04-12T17:37:41.010Z,11.14
2023-04-12T17:40:14.735Z,11.00
2023-04-12T17:42:49.496Z,10.88
2023-04-12T17:45:23.982Z,10.82
2023-04-12T17:47:56.407Z,10.71
2023-04-12T17:50:29.172Z,10.64
2023-04-12T17:53:02.604Z,10.52
2023-04-12T17:55:38.341Z,10.45
2023-04-12T17:58:10.627Z,10.36
2023-04-12T18:00:43.894Z,10.26
2023-04-12T18:03:16.417Z,10.22
2023-04-12T18:05:51.350Z,10.13
2023-04-12T18:08:25.303Z,10.05
2023-04-12T18:10:57.975Z,10.01
2023-04-12T18:13:30.683Z,9.92
2023-04-12T18:16:03.304Z,9.85
2023-04-12T18:18:36.107Z,9.81
2023-04-12T18:21:09.297Z,9.77
2023-04-12T18:23:42.640Z,9.72
2023-04-12T18:26:20.072Z,9.69
2023-04-12T18:28:52.895Z,9.62
2023-04-12T18:31:25.228Z,9.58
2023-04-12T18:33:58.056Z,9.57
2023-04-12T18:36:32.024Z,9.53
2023-04-12T18:39:04.944Z,9.50
2023-04-12T18:41:37.836Z,9.46
2023-04-12T18:44:12.224Z,9.44
2023-04-12T18:46:43.389Z,9.43
2023-04-12T18:49:17.901Z,9.39
2023-04-12T18:51:53.801Z,9.32
2023-04-12T18:54:27.868Z,9.30
2023-04-12T18:57:03.863Z,9.26
2023-04-12T18:59:37.036Z,9.22
2023-04-12T19:02:10.451Z,9.19
2023-04-12T19:04:44.881Z,9.18
2023-04-12T19:07:18.297Z,9.12
2023-04-12T19:09:51.366Z,9.12
2023-04-12T19:12:24.350Z,9.08
2023-04-12T19:15:03.247Z,9.04
2023-04-12T19:17:39.218Z,8.96
2023-04-12T19:20:14.306Z,8.91
2023-04-12T19:22:49.908Z,8.85
2023-04-12T19:25:22.692Z,8.79
2023-04-12T19:27:55.425Z,8.72
2023-04-12T19:30:28.163Z,8.64
2023-04-12T19:33:05.179Z,8.60
2023-04-12T19:35:38.029Z,8.51
2023-04-12T19:38:10.805Z,8.41
2023-04-12T19:40:46.453Z,8.33
2023-04-12T19:43:20.676Z,8.26
2023-04-12T19:45:53.488Z,8.18
2023-04-12T19:48:26.071Z,8.11
2023-04-12T19:50:58.601Z,8.05
2023-04-12T19:53:35.094Z,7.98
2023-04-12T19:56:08.319Z,7.87
2023-04-12T19:58:42.473Z,7.77
2023-04-12T20:01:16.162Z,7.71
2023-04-12T20:03:48.377Z,7.63
2023-04-12T20:06:21.863Z,7.56
2023-04-12T20:08:54.601Z,7.47
2023-04-12T20:11:28.032Z,7.39
2023-04-12T20:14:01.717Z,7.35
2023-04-12T20:16:34.284Z,7.26
2023-04-12T20:19:07.983Z,7.22
2023-04-12T20:21:40.699Z,7.15
2023-04-12T20:24:13.662Z,7.14
2023-04-12T20:26:47.596Z,7.04
2023-04-12T20:29:21.014Z,6.97
2023-04-12T20:31:56.213Z,6.93
2023-04-12T20:34:30.114Z,6.87
2023-04-12T20:37:03.158Z,6.80
2023-04-12T20:39:37.083Z,6.76
2023-04-12T20:42:09.942Z,6.72
2023-04-12T20:44:42.540Z,6.67
2023-04-12T20:47:14.864Z,6.59
2023-04-12T20:49:47.653Z,6.56
2023-04-12T20:52:20.837Z,6.52
2023-04-12T20:54:53.885Z,6.45
2023-04-12T20:57:29.011Z,6.39
2023-04-12T21:00:02.816Z,6.35
2023-04-12T21:02:49.421Z,6.29
2023-04-12T21:05:24.969Z,6.28
2023-04-12T21:08:01.013Z,6.21
2023-04-12T21:10:33.845Z,6.19
2023-04-12T21:13:06.401Z,6.15
2023-04-12T21:15:38.797Z,6.15
2023-04-12T21:18:11.570Z,6.12
2023-04-12T21:20:44.305Z,6.10
2023-04-12T21:23:17.335Z,6.10
2023-04-12T21:25:50.933Z,6.07
2023-04-12T21:28:24.436Z,6.04
2023-04-12T21:30:58.355Z,6.01
2023-04-12T21:33:34.203Z,6.02
2023-04-12T21:36:10.411Z,5.97
2023-04-12T21:38:42.869Z,5.94
2023-04-12T21:41:15.587Z,5.91
2023-04-12T21:43:49.074Z,5.87
2023-04-12T21:46:27.936Z,5.83
2023-04-12T21:49:01.030Z,5.79
2023-04-12T21:51:33.966Z,5.77
2023-04-12T21:54:06.645Z,5.74
2023-04-12T21:56:39.018Z,5.67
2023-04-12T21:59:11.421Z,5.62
2023-04-12T22:01:43.811Z,5.53
2023-04-12T22:04:16.501Z,5.49
2023-04-12T22:06:52.705Z,5.45
2023-04-12T23:48:43.513Z,4.16
2023-04-12T23:51:17.432Z,4.14
2023-04-12T23:53:50.795Z,4.10
2023-04-12T23:56:24.776Z,4.06
2023-04-12T23:58:57.452Z,4.01
